createdAt,value
2023-05-01T00:02:02.864Z,53.54
2023-05-01T00:06:24.690Z,54.01
2023-05-01T00:10:46.426Z,54.67
2023-05-01T00:15:10.861Z,54.33
2023-05-01T00:19:32.564Z,54.65
2023-05-01T00:23:54.274Z,54.40
2023-05-01T00:28:18.182Z,53.63
2023-05-01T00:32:41.301Z,52.99
2023-05-01T00:37:03.753Z,53.13
2023-05-01T00:41:25.535Z,53.32
2023-05-01T00:45:47.360Z,55.89
2023-05-01T00:50:11.285Z,57.42
2023-05-01T00:54:33.098Z,56.19
2023-05-01T00:58:56.107Z,57.39
2023-05-01T01:03:17.840Z,56.92
2023-05-01T01:07:46.278Z,58.72
2023-05-01T01:12:15.231Z,61.51
2023-05-01T01:16:41.765Z,61.95
2023-05-01T01:21:08.753Z,62.07
2023-05-01T01:26:07.586Z,62.25
2023-05-01T01:30:47.606Z,62.17
2023-05-01T01:35:18.172Z,59.00
2023-05-01T01:39:45.860Z,61.87
2023-05-01T01:44:14.732Z,60.68
2023-05-01T01:48:40.773Z,61.29
2023-05-01T01:53:05.387Z,62.37
2023-05-01T01:57:29.150Z,63.65
2023-05-01T02:01:53.272Z,62.80
2023-05-01T02:06:17.464Z,62.07
2023-05-01T02:10:43.083Z,63.51
2023-05-01T02:15:07.554Z,60.58
2023-05-01T02:19:31.802Z,59.35
2023-05-01T02:23:54.521Z,59.95
2023-05-01T02:28:22.024Z,60.47
2023-05-01T02:32:45.161Z,61.92
2023-05-01T02:37:08.227Z,62.25
2023-05-01T02:41:32.384Z,63.26
2023-05-01T02:45:58.199Z,62.85
2023-05-01T02:50:21.036Z,63.13
2023-05-01T02:54:43.888Z,63.24
2023-05-01T02:59:05.604Z,63.06
2023-05-01T03:03:28.789Z,63.34
2023-05-01T03:07:50.598Z,62.58
2023-05-01T03:12:12.359Z,59.70
2023-05-01T03:16:34.227Z,60.02
2023-05-01T03:20:57.345Z,59.93
2023-05-01T03:25:19.061Z,58.00
2023-05-01T03:29:40.774Z,58.67
2023-05-01T03:34:02.493Z,59.31
2023-05-01T03:38:25.547Z,59.31
2023-05-01T03:42:47.502Z,60.23
2023-05-01T03:47:09.272Z,60.19
2023-05-01T03:51:30.943Z,60.09
2023-05-01T03:55:53.991Z,60.41
2023-05-01T04:00:15.962Z,60.46
2023-05-01T04:04:37.765Z,61.10
2023-05-01T04:08:59.532Z,62.66
2023-05-01T04:13:22.715Z,62.03
2023-05-01T04:17:44.648Z,62.55
2023-05-01T04:22:06.461Z,61.27
2023-05-01T04:26:28.230Z,61.48
2023-05-01T04:30:51.691Z,62.22
2023-05-01T04:35:13.464Z,61.68
2023-05-01T04:39:35.240Z,61.62
2023-05-01T04:43:57.026Z,61.13
2023-05-01T04:48:20.340Z,61.64
2023-05-01T04:52:42.186Z,62.00
2023-05-01T04:57:03.892Z,60.47
2023-05-01T05:01:25.688Z,60.25
2023-05-01T05:05:48.810Z,59.67
2023-05-01T05:10:10.858Z,59.93
2023-05-01T05:14:32.686Z,59.22
2023-05-01T05:18:55.697Z,60.49
2023-05-01T05:23:18.844Z,60.44
2023-05-01T05:27:40.600Z,59.72
2023-05-01T05:32:02.391Z,59.67
2023-05-01T05:36:24.330Z,59.82
2023-05-01T05:40:47.397Z,59.47
2023-05-01T05:45:09.889Z,59.55
2023-05-01T05:49:31.604Z,58.56
2023-05-01T05:53:53.344Z,59.10
2023-05-01T05:58:16.458Z,58.19
2023-05-01T06:02:38.236Z,58.12
2023-05-01T06:07:00.046Z,58.59
2023-05-01T06:11:22.013Z,57.54
2023-05-01T06:15:46.089Z,57.81
2023-05-01T06:20:09.345Z,57.49
2023-05-01T06:24:31.265Z,56.86
2023-05-01T06:28:53.061Z,56.90
2023-05-01T06:33:16.184Z,56.79
2023-05-01T06:37:38.141Z,56.04
2023-05-01T06:41:59.867Z,56.58
2023-05-01T06:46:21.675Z,56.32
2023-05-01T06:50:45.012Z,55.86
2023-05-01T06:55:07.597Z,55.33
2023-05-01T06:59:29.423Z,55.73
2023-05-01T07:03:51.153Z,54.57
2023-05-01T07:08:14.452Z,54.82
2023-05-01T07:12:36.415Z,54.13
2023-05-01T07:16:58.147Z,54.43
2023-05-01T07:21:20.049Z,53.99
2023-05-01T07:25:43.514Z,53.90
2023-05-01T07:30:06.705Z,52.91
2023-05-01T07:34:28.420Z,52.19
2023-05-01T07:38:50.462Z,51.22
2023-05-01T07:43:13.516Z,50.35
2023-05-01T07:47:35.311Z,50.47
2023-05-01T07:51:57.041Z,49.89
2023-05-01T07:56:18.783Z,49.56
2023-05-01T08:00:41.854Z,49.00
2023-05-01T08:05:04.210Z,48.21
2023-05-01T08:09:25.966Z,48.83
2023-05-01T08:13:48.289Z,48.54
2023-05-01T08:18:11.514Z,48.14
2023-05-01T08:22:33.283Z,47.90
2023-05-01T08:26:55.375Z,47.79
2023-05-01T08:31:17.208Z,47.48
2023-05-01T08:35:40.307Z,47.58
2023-05-01T08:40:02.032Z,46.88
2023-05-01T08:44:25.634Z,47.22
2023-05-01T08:48:48.331Z,46.34
2023-05-01T08:53:12.978Z,45.74
2023-05-01T08:57:37.687Z,45.38
2023-05-01T09:02:01.161Z,44.70
2023-05-01T09:06:23.298Z,44.21
2023-05-01T09:10:50.245Z,44.23
2023-05-01T09:15:12.244Z,43.19
2023-05-01T09:19:34.027Z,42.84
2023-05-01T09:23:55.745Z,43.26
2023-05-01T09:28:18.877Z,41.88
2023-05-01T09:32:42.571Z,41.15
2023-05-01T09:37:04.521Z,39.96
2023-05-01T09:41:26.950Z,39.78
2023-05-01T09:46:02.250Z,37.25
2023-05-01T09:50:32.260Z,37.40
2023-05-01T09:55:12.385Z,37.56
2023-05-01T09:59:34.177Z,38.06
2023-05-01T10:03:57.452Z,37.41
2023-05-01T10:08:19.301Z,35.90
2023-05-01T10:12:41.016Z,34.82
2023-05-01T10:17:17.194Z,34.45
2023-05-01T10:21:40.343Z,36.63
2023-05-01T10:26:05.240Z,35.90
2023-05-01T10:30:28.426Z,35.29
2023-05-01T10:35:07.114Z,34.83
2023-05-01T10:39:35.070Z,35.76
2023-05-01T10:44:20.909Z,34.77
2023-05-01T10:48:56.360Z,34.39
2023-05-01T10:53:18.992Z,35.71
2023-05-01T10:57:47.696Z,36.74
2023-05-01T11:02:22.181Z,36.22
2023-05-01T11:07:16.622Z,35.02
2023-05-01T11:11:48.035Z,36.63
2023-05-01T11:16:42.626Z,36.28
2023-05-01T11:21:04.852Z,35.85
2023-05-01T11:25:28.771Z,36.55
2023-05-01T11:29:50.469Z,35.48
2023-05-01T11:34:13.670Z,35.17
2023-05-01T11:38:35.584Z,34.01
2023-05-01T11:43:01.619Z,36.16
2023-05-01T11:47:23.508Z,35.02
2023-05-01T11:51:56.354Z,35.51
2023-05-01T11:56:26.512Z,37.33
2023-05-01T12:00:50.552Z,35.34
2023-05-01T12:05:15.723Z,35.22
2023-05-01T12:09:39.466Z,36.69
2023-05-01T12:14:01.491Z,37.75
2023-05-01T12:18:23.603Z,35.97
2023-05-01T12:22:51.458Z,33.76
2023-05-01T12:27:14.511Z,34.52
2023-05-01T12:31:37.052Z,33.30
2023-05-01T12:36:09.943Z,31.21
2023-05-01T12:40:31.679Z,31.51
2023-05-01T12:45:01.321Z,30.77
2023-05-01T12:49:23.583Z,31.58
2023-05-01T12:53:45.541Z,31.84
2023-05-01T12:58:07.428Z,31.61
2023-05-01T13:02:32.545Z,30.81
2023-05-01T13:06:55.163Z,30.84
2023-05-01T13:11:17.639Z,31.86
2023-05-01T13:15:39.438Z,33.08
2023-05-01T13:20:04.202Z,32.34
2023-05-01T13:24:36.184Z,32.01
2023-05-01T13:28:58.752Z,34.60
2023-05-01T13:33:20.657Z,35.83
2023-05-01T13:37:43.932Z,36.09
2023-05-01T13:42:05.819Z,37.61
2023-05-01T13:46:28.721Z,38.65
2023-05-01T13:50:50.525Z,40.14
2023-05-01T13:55:14.008Z,40.27
2023-05-01T13:59:38.961Z,42.13
2023-05-01T14:04:01.070Z,43.01
2023-05-01T14:08:28.204Z,47.16
2023-05-01T14:12:54.671Z,53.49
2023-05-01T14:17:16.528Z,56.85
2023-05-01T14:21:40.794Z,63.28
2023-05-01T14:26:02.559Z,61.73
2023-05-01T14:30:28.199Z,56.98
2023-05-01T14:34:50.016Z,59.84
2023-05-01T14:39:12.179Z,59.55
2023-05-01T14:43:35.027Z,63.70
2023-05-01T14:47:58.283Z,64.96
2023-05-01T14:52:20.485Z,64.90
2023-05-01T14:56:43.265Z,65.85
2023-05-01T15:01:05.230Z,65.92
2023-05-01T15:05:28.336Z,67.50
2023-05-01T15:09:50.310Z,69.57
2023-05-01T15:14:12.148Z,69.74
2023-05-01T15:18:33.898Z,71.85
2023-05-01T15:22:56.940Z,71.22
2023-05-01T15:27:18.770Z,71.54
2023-05-01T15:31:40.732Z,69.80
2023-05-01T15:36:02.640Z,68.45
2023-05-01T15:40:25.717Z,77.55
2023-05-01T15:44:47.950Z,72.31
2023-05-01T15:49:10.002Z,69.54
2023-05-01T15:53:31.796Z,62.99
2023-05-01T15:57:54.860Z,63.19
2023-05-01T16:02:16.617Z,63.30
2023-05-01T16:06:40.118Z,68.41
2023-05-01T16:11:03.454Z,61.84
2023-05-01T16:15:26.553Z,60.06
2023-05-01T16:19:48.394Z,64.35
2023-05-01T16:24:10.787Z,68.08
2023-05-01T16:28:33.677Z,68.85
2023-05-01T16:32:57.156Z,68.45
2023-05-01T16:37:22.854Z,66.62
2023-05-01T16:41:46.583Z,67.17
2023-05-01T16:46:09.311Z,67.68
2023-05-01T16:50:32.722Z,66.33
2023-05-01T16:54:54.448Z,69.74
2023-05-01T16:59:16.263Z,68.62
2023-05-01T17:03:37.984Z,68.76
2023-05-01T17:08:01.121Z,70.84
2023-05-01T17:12:22.981Z,72.37
2023-05-01T17:16:45.861Z,74.29
2023-05-01T17:21:08.997Z,75.48
2023-05-01T17:25:32.083Z,73.62
2023-05-01T17:29:53.766Z,75.76
2023-05-01T17:34:15.732Z,75.60
2023-05-01T17:38:37.450Z,77.48
2023-05-01T17:43:00.740Z,75.89
2023-05-01T17:47:25.225Z,78.71
2023-05-01T17:51:47.764Z,80.25
2023-05-01T17:56:09.630Z,80.04
2023-05-01T18:00:32.822Z,80.02
2023-05-01T18:04:54.538Z,80.55
2023-05-01T18:09:16.313Z,81.12
2023-05-01T18:13:38.070Z,81.23
2023-05-01T18:18:01.241Z,79.39
2023-05-01T18:22:23.432Z,78.20
2023-05-01T18:26:45.171Z,80.65
2023-05-01T18:31:07.221Z,81.44
2023-05-01T18:35:31.340Z,81.29
2023-05-01T18:39:53.068Z,81.58
2023-05-01T18:44:14.890Z,81.28
2023-05-01T18:48:36.687Z,81.01
2023-05-01T18:52:59.798Z,80.58
2023-05-01T18:57:21.870Z,80.99
2023-05-01T19:01:43.662Z,82.00
2023-05-01T19:06:05.485Z,80.34
2023-05-01T19:10:28.694Z,80.83
2023-05-01T19:14:50.444Z,81.30
2023-05-01T19:19:12.266Z,81.11
2023-05-01T19:23:34.017Z,81.63
2023-05-01T19:27:57.072Z,81.70
2023-05-01T19:32:18.949Z,81.16
2023-05-01T19:36:40.925Z,81.18
2023-05-01T19:41:02.736Z,80.47
2023-05-01T19:45:25.902Z,81.51
2023-05-01T19:49:47.795Z,81.50
2023-05-01T19:54:09.739Z,82.24
2023-05-01T19:58:31.494Z,81.93
2023-05-01T20:02:54.745Z,82.73
2023-05-01T20:07:18.623Z,81.99
2023-05-01T20:11:40.469Z,83.04
2023-05-01T20:16:02.405Z,83.33
2023-05-01T20:20:25.866Z,82.37
2023-05-01T20:24:47.872Z,83.20
2023-05-01T20:29:09.652Z,82.92
2023-05-01T20:33:31.414Z,82.88
2023-05-01T20:37:54.489Z,81.61
2023-05-01T20:42:16.236Z,81.87
2023-05-01T20:46:38.276Z,81.62
2023-05-01T20:51:00.054Z,82.69
2023-05-01T20:55:23.390Z,82.42
2023-05-01T20:59:48.697Z,82.33
2023-05-01T21:04:10.555Z,81.56
2023-05-01T21:08:33.206Z,82.27
2023-05-01T21:12:56.492Z,82.31
2023-05-01T21:17:18.637Z,82.66
2023-05-01T21:21:40.602Z,81.42
2023-05-01T21:26:02.372Z,81.32
2023-05-01T21:30:32.708Z,81.38
2023-05-01T21:34:54.662Z,81.75
2023-05-01T21:39:16.380Z,82.38
2023-05-01T21:43:38.366Z,82.27
2023-05-01T21:48:01.453Z,83.27
2023-05-01T21:52:23.592Z,82.94
2023-05-01T21:56:45.355Z,82.61
2023-05-01T22:01:07.155Z,82.99
2023-05-01T22:05:32.072Z,83.71
2023-05-01T22:09:53.854Z,83.87
2023-05-01T22:14:15.941Z,83.87
2023-05-01T22:18:37.697Z,82.60
2023-05-01T22:23:01.080Z,82.75
2023-05-01T22:27:22.972Z,82.60
2023-05-01T22:31:44.828Z,82.48
2023-05-01T22:36:07.772Z,82.58
2023-05-01T22:40:30.911Z,83.09
2023-05-01T22:44:52.663Z,82.55
2023-05-01T22:49:14.426Z,82.71
2023-05-01T22:53:36.343Z,82.92
2023-05-01T22:57:59.702Z,82.26
2023-05-01T23:02:21.602Z,82.38
2023-05-01T23:06:43.647Z,81.98
2023-05-01T23:11:05.503Z,82.36
2023-05-01T23:15:29.132Z,82.77
2023-05-01T23:19:50.886Z,83.25
2023-05-01T23:24:15.207Z,82.92
2023-05-01T23:28:41.364Z,82.59
2023-05-01T23:33:04.736Z,82.67
2023-05-01T23:37:26.777Z,82.08
2023-05-01T23:41:48.708Z,81.02
2023-05-01T23:46:10.713Z,81.01
2023-05-01T23:50:34.254Z,81.30
2023-05-01T23:54:56.058Z,80.99
2023-05-01T23:59:17.839Z,79.69
